Terminal Aerodrome Forecast
Issued by NWS Omaha/Valley, NE

Home | Current Version | Previous Version | Text Only | Print | Product List | Glossary On
Versions: 1 2 3 4 5 6 7 8 9 10 11 12 13 14 15 16 17 18 19 20 21 22 23 24 25 26 27 28 29 30 31 32 33 34 35 36 37 38 39 40 41 42 43
000
FTUS43 KOAX 180520
TAFLNK
TAF
KLNK 180520Z 1806/1906 12005KT P6SM OVC050
      TEMPO 1807/1810 4SM -SN OVC030
     FM181000 VRB04KT 3SM -SN BR OVC025
      TEMPO 1810/1814 1SM -SN OVC010
     FM181400 09005KT 3SM -SN BR OVC009
     FM181700 12005KT 6SM BR OVC015
     FM182000 18005KT P6SM OVC025=

USA.gov is the U.S. government's official web portal to all federal, state and local government web resources and services.